Time;durP1;ratioP1;P1;durP2;ratioP2;P2;SDS_P1;SDS_P2;PMS_P1;PMS_P2;Temp;Humidity;BMP_temperature;BMP_pressure;BME280_temperature;BME280_humidity;BME280_pressure;Samples;Min_cycle;Max_cycle;Signal;HPM_P1;HPM_P2
2023/09/27 00:02:22;;;;;;;5.95;2.90;;;;;;;20.81;55.29;101929.78;5048881;28;20033;-66
2023/09/27 00:04:47;;;;;;;5.75;2.80;;;;;;;20.80;55.24;101933.41;5048815;28;20098;-66
2023/09/27 00:07:14;;;;;;;4.97;2.93;;;;;;;20.83;55.05;101937.63;5048873;28;20025;-67
2023/09/27 00:09:39;;;;;;;6.60;2.97;;;;;;;20.82;55.29;101943.88;5048856;28;20361;-67
2023/09/27 00:12:05;;;;;;;8.13;3.28;;;;;;;20.81;54.98;101944.84;5030773;28;20112;-65
2023/09/27 00:14:31;;;;;;;8.15;3.78;;;;;;;20.79;55.26;101939.69;5048671;28;20123;-65
2023/09/27 00:16:58;;;;;;;6.50;3.30;;;;;;;20.81;55.13;101931.63;5048730;28;20029;-65
2023/09/27 00:19:23;;;;;;;5.65;3.00;;;;;;;20.79;55.19;101936.16;5048470;28;20108;-67
2023/09/27 00:21:49;;;;;;;4.65;2.72;;;;;;;20.79;55.49;101939.69;5048833;28;20120;-67
2023/09/27 00:24:14;;;;;;;7.68;3.20;;;;;;;20.79;55.32;101949.41;5048525;28;21383;-67
2023/09/27 00:26:39;;;;;;;4.95;2.58;;;;;;;20.79;55.17;101949.41;5048725;28;20392;-65
2023/09/27 00:29:05;;;;;;;6.07;3.13;;;;;;;20.79;55.05;101936.16;5048448;28;20025;-65
2023/09/27 00:31:31;;;;;;;5.63;2.65;;;;;;;20.78;55.35;101942.44;5048535;28;20420;-66
2023/09/27 00:33:56;;;;;;;4.63;2.70;;;;;;;20.77;54.88;101944.22;5048162;28;20029;-67
2023/09/27 00:36:21;;;;;;;5.18;3.10;;;;;;;20.79;55.24;101938.81;5048745;28;20492;-66
2023/09/27 00:38:47;;;;;;;5.22;2.90;;;;;;;20.78;55.05;101935.31;5047979;28;20037;-67
2023/09/27 00:41:12;;;;;;;5.85;2.83;;;;;;;20.78;55.21;101945.09;5048153;28;20029;-65
2023/09/27 00:43:37;;;;;;;6.05;3.20;;;;;;;20.76;55.10;101931.97;5045620;28;20041;-66
2023/09/27 00:46:06;;;;;;;5.35;2.75;;;;;;;20.78;55.00;101934.50;5048075;28;20144;-65
2023/09/27 00:48:33;;;;;;;6.40;3.20;;;;;;;20.76;55.04;101931.09;5047619;28;20086;-66
2023/09/27 00:51:00;;;;;;;7.00;2.80;;;;;;;20.76;55.00;101926.66;5047881;28;20036;-65
2023/09/27 00:53:28;;;;;;;5.20;2.83;;;;;;;20.76;55.24;101925.78;5046832;28;20029;-65
2023/09/27 00:55:55;;;;;;;6.13;2.70;;;;;;;20.76;55.23;101923.16;5062228;28;20056;-65
2023/09/27 00:58:21;;;;;;;5.43;2.97;;;;;;;20.75;54.83;101926.78;5067824;28;20028;-65
2023/09/27 01:00:50;;;;;;;5.47;3.10;;;;;;;20.75;55.31;101929.44;5059369;28;20108;-65
2023/09/27 01:03:15;;;;;;;5.25;3.03;;;;;;;20.73;54.90;101923.38;5057952;28;20041;-65
2023/09/27 01:05:42;;;;;;;5.45;2.70;;;;;;;20.73;54.95;101918.06;5051911;28;20036;-65
2023/09/27 01:08:08;;;;;;;5.97;3.28;;;;;;;20.75;55.23;101926.78;5067324;28;20397;-66
2023/09/27 01:10:34;;;;;;;5.85;3.33;;;;;;;20.73;55.10;101923.38;5067344;28;21211;-68
2023/09/27 01:13:00;;;;;;;5.93;2.70;;;;;;;20.72;55.18;101922.53;5067718;28;20614;-66
2023/09/27 01:15:25;;;;;;;5.78;2.97;;;;;;;20.74;54.80;101933.03;5067566;28;20039;-65
2023/09/27 01:18:01;;;;;;;5.97;2.92;;;;;;;20.71;54.87;101923.53;5067043;28;20115;-65
2023/09/27 01:20:28;;;;;;;8.23;3.38;;;;;;;20.71;55.03;101910.28;5060648;28;20056;-65
2023/09/27 01:23:03;;;;;;;6.65;3.15;;;;;;;20.72;54.85;101911.94;5046469;28;20445;-66
2023/09/27 01:25:36;;;;;;;5.93;3.20;;;;;;;20.73;55.05;101896.88;5047221;28;20067;-67
2023/09/27 01:28:07;;;;;;;6.47;3.40;;;;;;;20.72;54.96;101896.06;5047169;28;20048;-67
2023/09/27 01:30:33;;;;;;;6.57;3.33;;;;;;;20.72;54.94;101884.63;5047340;28;20508;-66
2023/09/27 01:33:19;;;;;;;8.82;3.33;;;;;;;20.72;55.04;101887.28;5046828;28;20048;-66
2023/09/27 01:35:44;;;;;;;4.82;3.08;;;;;;;20.73;54.65;101888.94;5039704;28;20048;-65
2023/09/27 01:38:11;;;;;;;5.50;2.97;;;;;;;20.70;54.84;101886.56;5046959;28;20025;-65
2023/09/27 01:40:40;;;;;;;6.78;3.28;;;;;;;20.72;55.06;101881.97;5046658;28;20111;-65
2023/09/27 01:43:06;;;;;;;5.18;3.08;;;;;;;20.71;54.66;101885.56;5046936;28;20513;-65
2023/09/27 01:45:32;;;;;;;6.15;3.10;;;;;;;20.68;54.88;101884.03;5046859;28;20044;-67
2023/09/27 01:47:58;;;;;;;7.88;2.70;;;;;;;20.70;54.78;101895.34;5046957;28;20029;-67
2023/09/27 01:50:25;;;;;;;6.47;3.33;;;;;;;20.69;54.66;101893.63;5046936;28;20029;-65
2023/09/27 01:52:55;;;;;;;5.55;3.08;;;;;;;20.69;54.73;101903.41;5046272;28;20035;-65
2023/09/27 01:55:21;;;;;;;5.43;3.10;;;;;;;20.69;54.55;101900.75;5047218;28;20074;-65
2023/09/27 01:57:46;;;;;;;5.80;3.33;;;;;;;20.68;54.57;101897.25;5046561;28;20068;-68
2023/09/27 02:00:16;;;;;;;5.15;3.00;;;;;;;20.68;54.53;101897.25;5046789;28;20024;-65
2023/09/27 02:02:44;;;;;;;6.13;2.90;;;;;;;20.69;54.43;101898.09;5046544;28;20033;-65
2023/09/27 02:05:10;;;;;;;5.55;3.00;;;;;;;20.68;54.67;101896.41;5046623;28;20045;-65
2023/09/27 02:07:38;;;;;;;5.20;2.95;;;;;;;20.65;54.48;101895.69;5046484;28;20028;-65
2023/09/27 02:10:08;;;;;;;5.13;2.85;;;;;;;20.64;54.28;101888.69;5046682;28;20036;-65
2023/09/27 02:12:33;;;;;;;5.32;2.85;;;;;;;20.66;54.41;101891.22;5028853;28;20366;-65
2023/09/27 02:14:59;;;;;;;5.85;3.25;;;;;;;20.66;54.61;101888.56;5046429;28;20082;-65
2023/09/27 02:17:25;;;;;;;5.38;2.80;;;;;;;20.66;54.56;101891.22;5046154;28;20059;-66
2023/09/27 02:19:50;;;;;;;5.40;2.92;;;;;;;20.66;54.24;101893.88;5046028;28;20033;-66
2023/09/27 02:22:16;;;;;;;6.47;3.60;;;;;;;20.64;54.61;101893.16;5045671;28;20123;-66
2023/09/27 02:24:41;;;;;;;6.40;3.38;;;;;;;20.66;54.54;101891.22;5046326;28;20068;-66
2023/09/27 02:27:06;;;;;;;6.22;3.25;;;;;;;20.66;54.33;101899.16;5045884;28;20111;-66
2023/09/27 02:29:32;;;;;;;5.45;3.15;;;;;;;20.66;54.38;101893.88;5046212;28;20044;-65
2023/09/27 02:31:58;;;;;;;5.53;3.50;;;;;;;20.65;54.56;101903.63;5046377;28;20120;-65
2023/09/27 02:34:23;;;;;;;5.30;3.08;;;;;;;20.64;54.16;101895.78;5046044;28;20189;-65
2023/09/27 02:36:49;;;;;;;5.38;3.30;;;;;;;20.62;54.57;101892.38;5046011;28;20056;-65
2023/09/27 02:39:14;;;;;;;6.43;3.30;;;;;;;20.64;54.37;101899.28;5045885;28;20041;-66
2023/09/27 02:41:39;;;;;;;5.57;3.10;;;;;;;20.63;54.15;101905.53;5045965;28;20052;-64
2023/09/27 02:44:05;;;;;;;5.82;3.03;;;;;;;20.63;54.17;101900.22;5046182;28;20288;-65
2023/09/27 02:46:31;;;;;;;7.13;3.22;;;;;;;20.62;54.38;101895.88;5065665;28;20074;-66
2023/09/27 02:48:56;;;;;;;5.65;3.17;;;;;;;20.62;54.34;101887.94;5065904;28;20035;-67
2023/09/27 02:51:21;;;;;;;5.57;3.53;;;;;;;20.61;54.15;101885.41;5065768;28;20619;-65
2023/09/27 02:53:47;;;;;;;5.72;3.50;;;;;;;20.62;54.34;101893.22;5066118;28;20488;-65
2023/09/27 02:56:13;;;;;;;5.75;3.08;;;;;;;20.60;54.38;101895.16;5065896;28;20390;-67
2023/09/27 02:58:38;;;;;;;6.80;3.15;;;;;;;20.61;54.12;101896.81;5065941;28;20189;-65
2023/09/27 03:01:04;;;;;;;6.90;3.40;;;;;;;20.62;54.02;101901.16;5047757;28;20433;-67
2023/09/27 03:03:30;;;;;;;4.90;3.13;;;;;;;20.59;54.25;101885.50;5065844;28;20037;-65
2023/09/27 03:05:57;;;;;;;5.72;3.08;;;;;;;20.61;54.02;101891.53;5065713;28;20416;-65
2023/09/27 03:08:23;;;;;;;6.50;3.33;;;;;;;20.61;54.22;101888.03;5047822;28;20020;-68
2023/09/27 03:10:49;;;;;;;5.53;3.58;;;;;;;20.59;54.11;101885.50;5065169;28;20033;-67
2023/09/27 03:13:15;;;;;;;5.95;3.35;;;;;;;20.60;54.03;101889.00;5065710;28;20040;-65
2023/09/27 03:15:41;;;;;;;5.93;2.90;;;;;;;20.59;54.34;101895.28;5065456;28;20033;-65
2023/09/27 03:18:06;;;;;;;5.20;3.15;;;;;;;20.60;54.44;101900.47;5065437;28;20062;-64
2023/09/27 03:20:32;;;;;;;6.65;3.33;;;;;;;20.59;53.93;101901.41;5065219;28;20178;-65
2023/09/27 03:22:58;;;;;;;5.03;3.20;;;;;;;20.59;54.12;101889.97;5065709;28;20473;-65
2023/09/27 03:25:24;;;;;;;5.13;3.17;;;;;;;20.58;54.24;101888.28;5065567;28;20028;-67
2023/09/27 03:27:49;;;;;;;4.95;2.85;;;;;;;20.59;53.96;101897.91;5065802;28;20040;-65
2023/09/27 03:30:15;;;;;;;5.82;3.45;;;;;;;20.60;54.12;101904.88;5065921;28;20059;-66
2023/09/27 03:32:41;;;;;;;6.57;3.25;;;;;;;20.57;54.10;101900.69;5066471;28;20059;-68
2023/09/27 03:35:08;;;;;;;5.20;3.45;;;;;;;20.58;54.11;101914.75;5069250;28;20056;-65
2023/09/27 03:37:34;;;;;;;5.93;2.92;;;;;;;20.57;54.04;101918.34;5033033;28;20126;-64
2023/09/27 03:40:00;;;;;;;4.95;2.97;;;;;;;20.57;53.78;101915.72;5049336;28;20032;-65
2023/09/27 03:42:26;;;;;;;6.55;3.10;;;;;;;20.57;54.26;101921.88;5049354;28;20393;-66
2023/09/27 03:44:54;;;;;;;5.68;2.95;;;;;;;20.56;53.87;101922.81;5030733;28;20572;-66
2023/09/27 03:47:19;;;;;;;4.85;2.95;;;;;;;20.56;53.84;101919.34;5067309;28;20362;-65
2023/09/27 03:49:45;;;;;;;5.15;3.15;;;;;;;20.57;53.64;101900.69;5068862;28;20032;-65
2023/09/27 03:52:10;;;;;;;5.07;3.00;;;;;;;20.57;53.87;101891.88;5069559;28;20057;-65
2023/09/27 03:54:35;;;;;;;6.55;3.17;;;;;;;20.57;53.87;101886.56;5069079;28;20111;-65
2023/09/27 03:57:00;;;;;;;5.38;3.05;;;;;;;20.57;54.04;101882.16;5068972;28;20044;-65
2023/09/27 03:59:26;;;;;;;8.43;2.95;;;;;;;20.55;54.01;101889.34;5069124;28;20032;-65
2023/09/27 04:01:51;;;;;;;6.80;3.00;;;;;;;20.55;53.76;101893.81;5068752;28;20384;-65
2023/09/27 04:04:20;;;;;;;6.13;3.30;;;;;;;20.53;53.59;101907.16;5050693;28;20037;-68
2023/09/27 04:06:45;;;;;;;5.10;3.03;;;;;;;20.54;53.75;101910.66;5051144;28;20036;-65
2023/09/27 04:09:10;;;;;;;5.47;2.92;;;;;;;20.54;53.68;101913.31;5068784;28;20494;-65
2023/09/27 04:11:36;;;;;;;6.70;2.95;;;;;;;20.53;53.49;101922.22;5068746;28;20056;-64
2023/09/27 04:14:03;;;;;;;6.43;3.10;;;;;;;20.54;53.68;101937.97;5068469;28;20121;-65
2023/09/27 04:16:30;;;;;;;7.75;3.75;;;;;;;20.53;53.55;101932.81;5048566;28;20112;-66
2023/09/27 04:18:56;;;;;;;5.07;2.95;;;;;;;20.54;53.72;101913.31;5048428;28;20029;-66
2023/09/27 04:21:21;;;;;;;4.93;2.90;;;;;;;20.54;53.50;101919.44;5048472;28;20428;-65
2023/09/27 04:23:56;;;;;;;5.70;2.83;;;;;;;20.54;53.58;101921.25;5048408;28;20034;-66
2023/09/27 04:26:23;;;;;;;4.68;2.58;;;;;;;20.53;53.71;101936.28;5048094;28;20120;-65
2023/09/27 04:28:50;;;;;;;4.63;2.65;;;;;;;20.52;53.80;101937.25;5048342;28;20124;-67
2023/09/27 04:31:16;;;;;;;5.25;2.90;;;;;;;20.53;53.41;101946.03;5048271;28;20044;-65
2023/09/27 04:33:44;;;;;;;5.47;3.20;;;;;;;20.52;53.56;101942.56;5048141;28;20533;-64
2023/09/27 04:36:15;;;;;;;5.47;2.60;;;;;;;20.51;53.49;101946.16;5048204;28;20037;-68
2023/09/27 04:38:41;;;;;;;6.00;3.10;;;;;;;20.52;53.61;101952.28;5048591;28;20078;-66
2023/09/27 04:41:06;;;;;;;7.72;3.00;;;;;;;20.51;53.63;101951.44;5048206;28;20037;-65
2023/09/27 04:43:31;;;;;;;5.22;3.00;;;;;;;20.50;53.57;101952.41;5047394;28;20106;-65
2023/09/27 04:45:56;;;;;;;5.38;3.17;;;;;;;20.50;53.75;101936.50;5047237;28;20032;-65
2023/09/27 04:48:22;;;;;;;7.80;3.20;;;;;;;20.51;53.40;101918.84;5048128;28;20044;-66
2023/09/27 04:50:48;;;;;;;6.53;3.15;;;;;;;20.50;53.65;101907.38;5046731;28;22310;-66
2023/09/27 04:53:13;;;;;;;5.28;3.15;;;;;;;20.49;53.44;101918.97;5029619;28;20458;-65
2023/09/27 04:55:38;;;;;;;5.75;2.85;;;;;;;20.49;53.45;101929.53;5060488;28;20031;-65
2023/09/27 04:58:04;;;;;;;7.88;2.80;;;;;;;20.51;53.42;101940.84;5050137;28;20032;-64
2023/09/27 05:00:29;;;;;;;5.65;3.15;;;;;;;20.50;53.45;101927.72;5047511;28;20040;-66
2023/09/27 05:02:55;;;;;;;5.20;3.08;;;;;;;20.50;53.37;101931.22;5047407;28;20531;-65
2023/09/27 05:05:20;;;;;;;4.80;2.70;;;;;;;20.51;53.09;101934.72;5047978;28;20480;-66
2023/09/27 05:07:46;;;;;;;5.97;3.42;;;;;;;20.50;53.24;101933.88;5047855;28;20462;-63
2023/09/27 05:10:12;;;;;;;5.50;3.00;;;;;;;20.49;53.35;101937.50;5047791;28;20029;-67
2023/09/27 05:12:38;;;;;;;5.32;2.67;;;;;;;20.48;53.19;101935.78;5047769;28;20470;-64
2023/09/27 05:15:04;;;;;;;5.35;3.20;;;;;;;20.50;53.57;101925.91;5029324;28;20424;-66
2023/09/27 05:17:30;;;;;;;5.35;2.95;;;;;;;20.48;53.24;101909.31;5047486;28;21047;-66
2023/09/27 05:19:55;;;;;;;5.32;3.10;;;;;;;20.48;53.43;101920.72;5047731;28;20029;-64
2023/09/27 05:22:20;;;;;;;5.78;3.35;;;;;;;20.46;53.37;101917.38;5029417;28;20496;-65
2023/09/27 05:24:49;;;;;;;6.22;3.05;;;;;;;20.47;53.37;101908.47;5047154;28;20120;-65
2023/09/27 05:27:14;;;;;;;4.88;3.15;;;;;;;20.48;53.26;101910.16;5047277;28;20041;-64
2023/09/27 05:29:39;;;;;;;5.38;3.08;;;;;;;20.48;53.06;101909.31;5044169;28;20040;-66
2023/09/27 05:32:05;;;;;;;6.00;3.38;;;;;;;20.46;53.13;101909.44;5062844;28;20500;-64
2023/09/27 05:34:31;;;;;;;6.05;3.25;;;;;;;20.45;53.04;101910.38;5067351;28;20066;-67
2023/09/27 05:36:57;;;;;;;5.88;3.30;;;;;;;20.45;53.32;101912.19;5066615;28;20037;-67
2023/09/27 05:39:23;;;;;;;7.43;3.40;;;;;;;20.46;53.44;101916.53;5066821;28;20029;-64
2023/09/27 05:41:48;;;;;;;6.07;3.03;;;;;;;20.46;53.55;101916.53;5066449;28;20431;-65
2023/09/27 05:44:14;;;;;;;5.85;3.00;;;;;;;20.46;53.38;101917.38;5066507;28;20036;-66
2023/09/27 05:46:40;;;;;;;5.47;3.33;;;;;;;20.45;53.34;101909.53;5066755;28;20388;-66
2023/09/27 05:49:09;;;;;;;5.63;3.53;;;;;;;20.45;53.36;101902.44;5066851;28;20036;-65
2023/09/27 05:51:35;;;;;;;5.30;3.35;;;;;;;20.45;53.23;101909.53;5066546;28;20043;-66
2023/09/27 05:54:00;;;;;;;5.43;3.30;;;;;;;20.45;53.37;101904.25;5066669;28;20024;-65
2023/09/27 05:56:27;;;;;;;5.40;3.38;;;;;;;20.43;53.31;101898.22;5045695;28;20036;-64
2023/09/27 05:58:53;;;;;;;4.60;2.70;;;;;;;20.45;53.44;101898.94;5046687;28;20108;-64
2023/09/27 06:01:19;;;;;;;6.07;3.25;;;;;;;20.46;53.53;101893.53;5046781;28;20270;-66
2023/09/27 06:03:48;;;;;;;5.60;3.00;;;;;;;20.50;53.48;101886.19;5046598;28;20037;-65
2023/09/27 06:06:14;;;;;;;4.68;2.97;;;;;;;20.51;53.57;101906.44;5045864;28;20132;-67
2023/09/27 06:08:40;;;;;;;4.78;2.80;;;;;;;20.51;53.55;101905.59;5046352;28;20119;-64
2023/09/27 06:11:07;;;;;;;5.68;3.00;;;;;;;20.53;53.83;101893.91;5046536;28;20047;-66
2023/09/27 06:13:32;;;;;;;6.22;3.08;;;;;;;20.52;54.04;101894.91;5046323;28;20025;-65
2023/09/27 06:16:00;;;;;;;7.50;3.30;;;;;;;20.53;53.91;101893.91;5046571;28;20036;-64
2023/09/27 06:18:26;;;;;;;7.07;3.45;;;;;;;20.49;54.05;101897.78;5046746;28;20028;-66
2023/09/27 06:20:52;;;;;;;7.32;2.88;;;;;;;20.51;54.21;101898.50;5046324;28;20032;-66
2023/09/27 06:23:19;;;;;;;5.72;3.00;;;;;;;20.52;54.24;101892.25;5046258;28;20473;-67
2023/09/27 06:25:46;;;;;;;8.07;3.47;;;;;;;20.53;54.15;101890.44;5046327;28;20123;-67
2023/09/27 06:28:13;;;;;;;6.68;3.17;;;;;;;20.51;54.32;101879.97;5045970;28;20064;-66
2023/09/27 06:30:40;;;;;;;5.68;2.95;;;;;;;20.53;54.52;101880.66;5046494;28;20043;-67
2023/09/27 06:33:06;;;;;;;5.47;3.10;;;;;;;20.53;54.55;101882.50;5045895;28;20075;-66
2023/09/27 06:35:32;;;;;;;7.57;3.17;;;;;;;20.54;54.51;101878.88;5046167;28;20382;-64
2023/09/27 06:38:00;;;;;;;5.43;3.25;;;;;;;20.53;54.46;101871.91;5046599;28;20025;-67
2023/09/27 06:40:25;;;;;;;5.45;3.15;;;;;;;20.54;54.54;101879.72;5046439;28;20374;-67
2023/09/27 06:42:51;;;;;;;5.88;3.20;;;;;;;20.54;54.53;101877.06;5032399;28;20103;-66
2023/09/27 06:45:16;;;;;;;9.45;3.40;;;;;;;20.55;54.63;101885.84;5026589;28;20460;-66
2023/09/27 06:47:45;;;;;;;8.13;3.40;;;;;;;20.55;54.43;101883.22;5030772;28;20458;-67
2023/09/27 06:50:11;;;;;;;8.65;3.30;;;;;;;20.56;54.63;101898.97;5043456;28;20029;-66
2023/09/27 06:52:39;;;;;;;7.25;2.88;;;;;;;20.57;54.71;101910.41;5046440;28;20131;-65
2023/09/27 06:55:10;;;;;;;7.13;3.40;;;;;;;20.55;54.81;101907.88;5045884;28;20032;-66
2023/09/27 06:57:40;;;;;;;9.82;3.63;;;;;;;20.56;54.83;101908.75;5028267;28;20025;-67
2023/09/27 07:00:10;;;;;;;7.63;3.30;;;;;;;20.55;54.53;101907.88;5045941;28;20481;-65
2023/09/27 07:02:35;;;;;;;7.88;3.30;;;;;;;20.57;54.79;101902.47;5028085;28;20029;-68
2023/09/27 07:05:01;;;;;;;6.20;3.60;;;;;;;20.58;54.66;101902.34;5043177;28;20124;-66
2023/09/27 07:07:29;;;;;;;5.28;2.92;;;;;;;20.55;54.81;101889.34;5010444;28;20410;-66
2023/09/27 07:09:55;;;;;;;7.45;3.45;;;;;;;20.56;54.98;101893.69;5029834;28;20055;-65
2023/09/27 07:12:21;;;;;;;7.60;3.63;;;;;;;20.48;55.17;101882.81;5029515;28;20079;-65
2023/09/27 07:14:47;;;;;;;7.70;3.45;;;;;;;20.39;55.72;101897.59;5033148;28;20029;-66
2023/09/27 07:17:12;;;;;;;6.00;3.17;;;;;;;20.32;56.12;101898.19;5046204;28;20400;-66
2023/09/27 07:19:37;;;;;;;12.30;3.47;;;;;;;20.30;56.50;101904.41;5049227;28;20083;-65
2023/09/27 07:22:07;;;;;;;5.80;3.50;;;;;;;20.26;56.26;101908.25;5049402;28;20075;-67
2023/09/27 07:24:33;;;;;;;9.63;3.80;;;;;;;20.26;56.55;101910.88;5049291;28;20033;-67
2023/09/27 07:26:58;;;;;;;6.15;3.25;;;;;;;20.23;56.37;101908.47;5049288;28;20041;-67
2023/09/27 07:29:23;;;;;;;7.18;3.40;;;;;;;20.26;56.56;101910.06;5049042;28;20619;-65
2023/09/27 07:31:49;;;;;;;8.23;3.80;;;;;;;20.25;56.76;101911.88;5048505;28;20032;-66
2023/09/27 07:34:15;;;;;;;10.40;3.70;;;;;;;20.25;56.55;101905.69;5047575;28;20382;-65
2023/09/27 07:36:44;;;;;;;7.05;3.28;;;;;;;20.24;56.49;101915.47;5039939;28;20029;-67
2023/09/27 07:39:09;;;;;;;6.82;3.13;;;;;;;20.27;56.60;101917.06;5026695;28;20057;-64
2023/09/27 07:41:35;;;;;;;5.43;2.78;;;;;;;20.26;56.69;101908.25;5031633;28;20124;-66
2023/09/27 07:44:06;;;;;;;5.88;2.97;;;;;;;20.27;56.56;101904.66;5049238;28;20032;-66
2023/09/27 07:46:32;;;;;;;5.40;3.25;;;;;;;20.32;56.24;101903.47;5048870;28;20025;-67
2023/09/27 07:48:57;;;;;;;5.80;3.00;;;;;;;20.34;56.34;101893.59;5049605;28;20044;-66
2023/09/27 07:51:23;;;;;;;4.88;2.75;;;;;;;20.33;56.29;101891.91;5048305;28;20120;-63
2023/09/27 07:53:48;;;;;;;6.50;3.33;;;;;;;20.34;56.46;101902.38;5049195;28;20431;-65
2023/09/27 07:56:25;;;;;;;7.80;3.50;;;;;;;20.34;56.37;101914.78;5048799;28;20039;-66
2023/09/27 07:58:52;;;;;;;7.38;3.10;;;;;;;20.35;56.46;101913.84;5048935;28;20425;-64
2023/09/27 08:01:20;;;;;;;5.78;3.13;;;;;;;20.37;56.32;101919.84;5044911;28;20031;-65
2023/09/27 08:03:52;;;;;;;6.40;3.50;;;;;;;20.37;56.29;101912.75;5046841;28;20032;-65
2023/09/27 08:06:18;;;;;;;6.03;3.42;;;;;;;20.39;56.34;101916.13;5047237;28;20033;-64
2023/09/27 08:08:44;;;;;;;8.07;3.30;;;;;;;20.50;55.97;101917.97;5048176;28;20033;-65
2023/09/27 08:11:13;;;;;;;5.47;3.13;;;;;;;20.63;55.25;101912.59;5028987;28;20495;-69
2023/09/27 08:13:39;;;;;;;7.85;3.17;;;;;;;20.75;55.11;101918.81;5048984;28;20025;-66
2023/09/27 08:16:07;;;;;;;5.95;2.92;;;;;;;20.80;55.29;101921.97;5048583;28;20033;-65
2023/09/27 08:18:37;;;;;;;5.97;2.70;;;;;;;20.77;54.97;101920.38;5046778;28;20453;-65
2023/09/27 08:21:03;;;;;;;6.03;2.97;;;;;;;20.83;54.61;101922.56;5030982;28;20444;-67
2023/09/27 08:23:28;;;;;;;7.78;3.22;;;;;;;20.81;55.03;101935.09;5048439;28;20409;-66
2023/09/27 08:25:55;;;;;;;6.53;2.70;;;;;;;20.80;55.15;101946.66;5048201;28;20040;-64
2023/09/27 08:28:21;;;;;;;8.88;2.75;;;;;;;20.85;54.80;101938.34;5048015;28;20035;-64
2023/09/27 08:30:48;;;;;;;7.65;3.00;;;;;;;20.90;54.70;101930.06;5048219;28;20032;-65
2023/09/27 08:33:13;;;;;;;5.38;2.65;;;;;;;20.89;54.84;101928.38;5048214;28;20063;-64
2023/09/27 08:35:39;;;;;;;6.28;2.75;;;;;;;20.93;54.81;101933.31;5047871;28;20060;-65
2023/09/27 08:38:04;;;;;;;8.25;2.60;;;;;;;20.88;55.11;101932.81;5048317;28;20029;-63
2023/09/27 08:40:29;;;;;;;5.53;2.50;;;;;;;20.91;54.96;101934.41;5048807;28;20029;-64
2023/09/27 08:42:57;;;;;;;8.02;2.88;;;;;;;20.85;55.50;101954.25;5053914;28;20045;-66
2023/09/27 08:45:24;;;;;;;10.13;2.90;;;;;;;20.73;55.93;101949.88;5049278;28;20115;-64
2023/09/27 08:47:50;;;;;;;5.28;2.58;;;;;;;20.65;56.19;101932.75;5046169;28;20036;-65
2023/09/27 08:50:18;;;;;;;6.45;2.83;;;;;;;20.60;56.30;101923.41;5047894;28;20036;-67
2023/09/27 08:52:51;;;;;;;9.23;2.75;;;;;;;20.57;56.43;101924.50;5047490;28;20025;-66
2023/09/27 08:55:18;;;;;;;6.40;2.90;;;;;;;20.55;56.66;101921.13;5047502;28;20355;-66
2023/09/27 08:57:48;;;;;;;8.68;2.78;;;;;;;20.57;56.73;101928.94;5047257;28;20078;-65
2023/09/27 09:00:16;;;;;;;6.53;3.05;;;;;;;20.55;56.81;101922.94;5046672;28;20029;-66
2023/09/27 09:02:45;;;;;;;6.15;2.80;;;;;;;20.53;57.08;101919.56;5047096;28;20523;-65
2023/09/27 09:05:13;;;;;;;9.98;3.17;;;;;;;20.56;56.89;101924.63;5046831;28;20095;-63
2023/09/27 09:07:42;;;;;;;6.38;3.00;;;;;;;20.53;56.54;101928.34;5047040;28;20139;-65
2023/09/27 09:10:15;;;;;;;7.10;2.75;;;;;;;20.53;56.92;101917.75;5047191;28;20135;-65
2023/09/27 09:12:42;;;;;;;8.68;2.95;;;;;;;20.54;56.92;101918.63;5046934;28;20021;-66
2023/09/27 09:15:14;;;;;;;5.35;2.80;;;;;;;20.55;56.62;101907.03;5046241;28;20032;-65
2023/09/27 09:17:47;;;;;;;6.03;2.60;;;;;;;20.59;56.73;101906.69;5050018;28;20025;-65
2023/09/27 09:20:21;;;;;;;6.57;2.85;;;;;;;20.80;55.92;101919.31;5038655;28;20033;-65
2023/09/27 09:22:50;;;;;;;12.23;2.83;;;;;;;20.90;55.71;101912.34;5045984;28;20071;-67
2023/09/27 09:25:15;;;;;;;7.40;2.60;;;;;;;20.98;55.26;101909.97;5047468;28;20025;-66
2023/09/27 09:27:41;;;;;;;6.60;2.60;;;;;;;21.00;55.34;101909.84;5049220;28;20067;-66
2023/09/27 09:30:11;;;;;;;8.90;2.97;;;;;;;21.04;55.41;101910.47;5052196;23;20500;-67
2023/09/27 09:32:49;;;;;;;9.02;3.00;;;;;;;21.02;55.22;101899.97;5065286;28;20040;-66
2023/09/27 09:35:31;;;;;;;8.02;3.10;;;;;;;21.06;55.41;101904.09;5073621;22;20409;-65
2023/09/27 09:37:58;;;;;;;7.10;2.70;;;;;;;21.09;55.51;101903.00;5073126;22;20084;-65
2023/09/27 09:40:24;;;;;;;7.55;2.70;;;;;;;21.07;55.23;101895.16;5065584;28;20021;-65
2023/09/27 09:42:50;;;;;;;6.25;3.00;;;;;;;21.11;55.16;101887.81;5066455;28;20068;-65
2023/09/27 09:45:16;;;;;;;8.70;2.88;;;;;;;21.10;55.24;101878.19;5065642;28;20067;-64
2023/09/27 09:47:44;;;;;;;6.75;2.78;;;;;;;21.09;55.38;101876.47;5074689;22;20083;-70
2023/09/27 09:50:19;;;;;;;9.52;2.67;;;;;;;21.10;55.24;101876.38;5057006;28;20040;-73
2023/09/27 09:52:57;;;;;;;10.30;2.92;;;;;;;21.09;55.41;101865.88;5051687;28;20461;-72
2023/09/27 09:58:25;;;;;;;6.43;2.55;;;;;;;21.11;55.13;101858.66;5014347;28;19929;-76
2023/09/27 10:00:53;;;;;;;8.00;2.60;;;;;;;21.11;55.44;101867.47;5018944;28;20033;-71
2023/09/27 10:03:21;;;;;;;11.57;3.17;;;;;;;21.15;55.56;101862.75;5019545;28;20056;-69
2023/09/27 10:05:50;;;;;;;6.43;2.63;;;;;;;21.13;55.48;101849.63;5019405;28;20034;-68
2023/09/27 10:08:20;;;;;;;6.88;2.63;;;;;;;21.15;55.02;101846.84;5016493;28;20065;-72
2023/09/27 10:10:46;;;;;;;8.10;2.72;;;;;;;21.14;55.49;101847.81;5016905;28;20053;-78
2023/09/27 10:13:13;;;;;;;7.38;2.72;;;;;;;21.17;55.54;101850.22;5030639;28;20067;-74
2023/09/27 10:15:41;;;;;;;8.07;2.67;;;;;;;21.18;55.54;101852.75;5018420;28;20044;-75
2023/09/27 10:18:21;;;;;;;5.32;2.50;;;;;;;21.18;55.52;101860.69;5018316;28;20073;-73
2023/09/27 10:21:05;;;;;;;7.35;2.70;;;;;;;21.19;55.12;101867.69;5016165;28;20071;-75
2023/09/27 10:23:53;;;;;;;6.13;2.42;;;;;;;21.20;55.47;101866.75;5019126;28;20125;-73
2023/09/27 10:26:27;;;;;;;9.27;2.58;;;;;;;21.22;55.26;101857.81;5018746;28;20044;-72
2023/09/27 10:29:06;;;;;;;;;;;;;;;21.27;55.03;101848.53;5012006;28;20040;-71
2023/09/27 10:31:51;;;;;;;6.28;2.60;;;;;;;21.25;55.17;101828.41;5018793;28;19913;-75
2023/09/27 10:34:25;;;;;;;9.15;2.70;;;;;;;21.22;55.30;101828.66;5017882;28;20034;-78
2023/09/27 10:36:52;;;;;;;6.93;2.40;;;;;;;21.23;55.43;101831.19;5016271;28;20477;-71
2023/09/27 10:39:17;;;;;;;6.38;2.78;;;;;;;21.24;55.43;101835.53;5017285;28;20029;-74
2023/09/27 10:41:46;;;;;;;5.88;2.53;;;;;;;21.22;55.61;101829.50;5017928;28;20521;-72
2023/09/27 10:44:26;;;;;;;6.07;2.60;;;;;;;21.22;55.69;101828.66;5017537;28;20029;-79
2023/09/27 10:46:52;;;;;;;7.50;3.85;;;;;;;21.20;55.40;101826.97;5008588;28;20445;-76
2023/09/27 10:49:22;;;;;;;5.78;2.45;;;;;;;21.19;55.47;101824.44;5037211;28;20098;-75
2023/09/27 10:51:47;;;;;;;8.82;3.10;;;;;;;21.18;55.54;101810.34;5037991;28;20028;-76
2023/09/27 10:54:13;;;;;;;6.88;2.72;;;;;;;21.18;55.41;101801.56;5038816;28;20055;-73
2023/09/27 10:56:42;;;;;;;8.43;2.67;;;;;;;21.16;55.89;101803.50;5038170;28;20461;-67
2023/09/27 10:59:08;;;;;;;9.60;3.75;;;;;;;21.14;56.22;101794.78;5019319;28;20438;-71
2023/09/27 11:01:35;;;;;;;9.38;3.05;;;;;;;21.13;56.24;101796.63;5034130;28;20067;-72
2023/09/27 11:04:02;;;;;;;11.93;3.50;;;;;;;21.13;55.82;101795.78;5035047;28;20059;-71
2023/09/27 11:06:29;;;;;;;9.57;3.20;;;;;;;21.13;56.03;101793.97;5033364;28;20140;-73
2023/09/27 11:09:07;;;;;;;7.68;3.13;;;;;;;21.10;56.08;101788.91;5035010;28;20043;-72
2023/09/27 11:11:36;;;;;;;11.18;3.15;;;;;;;21.10;55.77;101785.41;5038540;28;20047;-71
2023/09/27 11:14:01;;;;;;;7.82;2.72;;;;;;;21.09;56.06;101781.91;5036880;28;20037;-69
2023/09/27 11:16:26;;;;;;;14.50;3.35;;;;;;;21.09;56.19;101783.72;5037313;28;20043;-73
2023/09/27 11:18:52;;;;;;;11.45;3.33;;;;;;;21.08;56.27;101785.53;5024040;28;20486;-74
2023/09/27 11:21:19;;;;;;;9.27;3.22;;;;;;;21.09;56.46;101773.13;5034716;28;20497;-73
2023/09/27 11:23:52;;;;;;;6.90;3.00;;;;;;;21.08;56.25;101760.81;5035093;28;20107;-71
2023/09/27 11:26:19;;;;;;;5.28;2.72;;;;;;;21.10;56.28;101759.75;5036780;28;20075;-72
2023/09/27 11:28:45;;;;;;;8.55;2.72;;;;;;;21.10;56.19;101764.22;5036645;28;20040;-72